Umiat, Alaska
Current Conditions -  °F | °C
As of 11:53 PM on Saturday 20 Dec 2014 (Local Time) from PAQT Reporting Station
Light Snow Light Snow  
Wind Chill: -1°   Ceiling: 1700
Heat Index: -1°   Visibility: 6mi
Dew Point: -6°   Wind: 3mph
Humidity: 79%   Direction: 190°S
Pressure: 29.6"   Gusts: NA
Location:  69.37°N, 152.13°W
Report Text: PAQT 210853Z AUTO 19003KT 6SM -SN OVC017 M18/M21 A2960 RMK AO2 UPE0757B31E51SNB0757E21B51 SLP025 P0000 60000 T11831211 411441194 53005 TSNO
Loading
Personal Weather Stations






























Interactive Weather Map New forecast layout! Learn more

10-Day Weather Forecast

Advertisements
Track Severe Weather on mobile